Latest Weather Observations for White Cliffs AWS

IDN60801

Issued at 7:03 am EST Monday 21 August 2017 (issued every 30 minutes, with the page automatically refreshed every 10 minutes)

About weather observations | Map of weather stations | Latest weather observations for NSW | Other Formats
Station Details ID: 046129 Name: WHITE CLIFFS AWS Lat: -30.85 Lon: 143.07 Height: 158.0 m
Data from the previous 72 hours. | See also: Recent months at White Cliffs AWS
Date/Time
EST
Temp
°C
App
Temp
°C
Dew
Point
°C
Rel
Hum
%
Delta-T
°C
Wind Press
QNH
hPa
Press
MSL
hPa
Rain since
9am
mm
Dir  Spd
km/h
Gust
km/h
Spd
kts
Gust
kts
21/07:00am 10.9 6.0 -0.2 46 4.5 E 15 17 8 9 1014.5 1014.5 0.0
21/06:30am 10.6 6.4 1.4 53 3.9 E 13 17 7 9 1014.4 1014.4 0.0
21/06:00am 10.4 6.6 2.0 56 3.6 E 11 13 6 7 1014.8 1014.8 0.0
21/05:30am 10.1 6.0 2.5 59 3.3 E 13 15 7 8 1014.2 1014.2 0.0
21/05:00am 10.1 6.2 3.2 62 3.0 E 13 15 7 8 1014.3 1014.3 0.0
21/04:30am 10.4 6.8 2.7 59 3.3 ENE 11 13 6 7 1014.7 1014.7 0.0
21/04:00am 10.5 6.6 3.3 61 3.2 ENE 13 15 7 8 1014.8 1014.8 0.0
21/03:30am 10.7 6.4 3.3 60 3.3 E 15 17 8 9 1015.1 1015.1 0.0
21/03:00am 11.3 7.7 2.9 56 3.7 E 11 13 6 7 1015.5 1015.5 0.0
21/02:30am 11.9 8.4 1.0 47 4.6 ENE 9 13 5 7 1016.1 1016.1 0.0
21/02:00am 12.2 8.9 0.0 43 5.0 NNE 7 11 4 6 1016.9 1016.8 0.0
21/01:30am 12.4 8.4 0.2 43 5.1 NNE 11 15 6 8 1016.9 1016.8 0.0
21/01:00am 13.2 6.7 -2.7 33 6.3 N 22 28 12 15 1016.7 1016.6 0.0
21/12:30am 13.3 6.4 -3.0 32 6.4 NNE 24 33 13 18 1015.6 1015.6 0.0
21/12:00am 12.9 6.5 -1.4 37 5.8 NNE 22 28 12 15 1015.7 1015.7 0.0
 
Date/Time
EST
Temp
°C
App
Temp
°C
Dew
Point
°C
Rel
Hum
%
Delta-T
°C
Wind Press
QNH
hPa
Press
MSL
hPa
Rain since
9am
mm
Dir  Spd
km/h
Gust
km/h
Spd
kts
Gust
kts
20/11:30pm 13.9 5.9 -5.3 26 7.2 NNE 28 39 15 21 1015.5 1015.5 0.0
20/11:00pm 13.7 5.8 -4.9 27 7.0 NE 28 37 15 20 1015.1 1015.1 0.0
20/10:30pm 13.4 7.2 -3.4 31 6.5 NE 20 28 11 15 1016.8 1016.7 0.0
20/10:00pm 13.9 8.0 -5.8 25 7.3 NNE 17 20 9 11 1017.9 1017.8 0.0
20/09:30pm 13.6 8.8 -6.0 25 7.2 NE 11 15 6 8 1018.3 1018.2 0.0
20/09:00pm 13.4 8.6 -6.2 25 7.1 NNE 11 13 6 7 1018.5 1018.4 0.0
20/08:30pm 13.4 8.6 -6.2 25 7.2 NE 11 13 6 7 1018.5 1018.4 0.0
20/08:00pm 13.4 9.0 -6.2 25 7.1 NNE 9 11 5 6 1018.8 1018.8 0.0
20/07:30pm 13.8 9.3 -6.4 24 7.4 N 9 11 5 6 1019.1 1019.1 0.0
20/07:00pm 13.3 8.9 -6.3 25 7.1 NE 9 11 5 6 1019.0 1019.0 0.0
20/06:30pm 14.1 9.3 -6.1 24 7.5 NE 11 11 6 6 1019.2 1019.2 0.0
20/06:00pm 14.6 9.8 -6.3 23 7.7 NE 11 13 6 7 1019.1 1019.1 0.0
20/05:30pm 15.1 9.5 -6.4 22 8.0 NE 15 19 8 10 1019.0 1019.0 0.0
20/05:00pm 15.2 9.9 -6.9 21 8.1 NE 13 17 7 9 1019.4 1019.4 0.0
20/04:30pm 15.6 10.4 -6.0 22 8.1 NE 13 17 7 9 1019.5 1019.5 0.0
20/04:00pm 16.7 11.5 -6.3 20 8.7 NE 13 19 7 10 1019.6 1019.6 0.0
20/03:30pm 16.5 11.4 -5.3 22 8.4 NE 13 22 7 12 1019.9 1019.9 0.0
20/03:00pm 15.8 11.1 -5.3 23 8.0 NNE 11 17 6 9 1020.3 1020.3 0.0
20/02:30pm 15.4 9.9 -5.6 23 8.0 NE 15 22 8 12 1020.6 1020.6 0.0
20/02:00pm 15.6 9.4 -4.9 24 7.9 E 19 26 10 14 1021.0 1021.0 0.0
20/01:30pm 15.1 9.8 -3.7 27 7.4 ENE 15 26 8 14 1021.7 1021.7 0.0
20/01:00pm 14.4 9.5 -3.4 29 7.0 ENE 13 22 7 12 1022.5 1022.5 0.0
20/12:30pm 13.9 9.0 -3.4 30 6.8 ENE 13 17 7 9 1023.8 1023.7 0.0
20/12:00pm 13.2 8.3 -3.5 31 6.4 ENE 13 24 7 13 1024.5 1024.5 0.0
20/11:30am 13.2 8.0 -2.7 33 6.3 ENE 15 24 8 13 1024.9 1024.9 0.0
20/11:00am 12.1 6.5 -3.3 34 5.9 ENE 17 24 9 13 1025.6 1025.6 0.0
20/10:30am 11.6 5.5 -2.6 37 5.5 E 20 30 11 16 1025.9 1025.9 0.0
20/10:00am 11.0 5.6 -1.7 41 5.0 E 17 22 9 12 1026.4 1026.4 0.0
20/09:30am 9.6 4.5 -2.0 44 4.5 E 15 19 8 10 1026.8 1026.8 0.0
20/09:00am 8.1 2.9 -2.5 47 3.9 E 15 19 8 10 1026.8 1026.8 0.0
20/08:30am 7.6 2.8 -2.4 49 3.7 E 13 17 7 9 1027.1 1027.1 0.0
20/08:00am 4.9 0.7 -4.1 52 3.1 S 9 11 5 6 1026.9 1026.9 0.0
20/07:30am 3.9 0.0 -4.3 55 2.8 SSW 7 11 4 6 1027.0 1027.0 0.0
20/07:00am 2.9 -1.3 -4.3 59 2.4 ESE 9 11 5 6 1026.6 1026.6 0.0
20/06:30am 2.8 -1.1 -5.1 56 2.6 E 7 11 4 6 1026.3 1026.3 0.0
20/06:00am 3.6 -1.1 -4.8 54 2.8 ESE 11 15 6 8 1026.2 1026.2 0.0
20/05:30am 3.5 -1.2 -4.7 55 2.7 S 11 13 6 7 1025.9 1025.9 0.0
20/05:00am 3.9 0.9 -4.8 53 2.9 S 2 7 1 4 1025.7 1025.7 0.0
20/04:30am 4.3 1.8 -4.4 53 3.0 CALM 0 0 0 0 1025.7 1025.7 0.0
20/04:00am 4.1 0.2 -4.6 53 2.9 E 7 9 4 5 1025.5 1025.5 0.0
20/03:30am 4.3 -0.4 -4.7 52 3.0 E 11 15 6 8 1025.3 1025.3 0.0
20/03:00am 5.2 0.1 -4.9 48 3.4 E 13 15 7 8 1025.3 1025.3 0.0
20/02:30am 7.5 1.4 -3.9 44 4.1 ESE 19 26 10 14 1025.4 1025.4 0.0
20/02:00am 8.4 2.1 -3.7 42 4.4 SE 20 26 11 14 1025.5 1025.5 0.0
20/01:30am 8.9 2.6 -3.6 41 4.6 SE 20 26 11 14 1025.8 1025.8 0.0
20/01:00am 9.2 3.1 -4.0 39 4.8 SE 19 22 10 12 1026.2 1026.2 0.0
20/12:30am 9.7 3.4 -3.9 38 5.0 SE 20 26 11 14 1026.1 1026.1 0.0
20/12:00am 10.0 3.7 -4.4 36 5.2 SE 20 24 11 13 1026.3 1026.3 0.0
 
Date/Time
EST
Temp
°C
App
Temp
°C
Dew
Point
°C
Rel
Hum
%
Delta-T
°C
Wind Press
QNH
hPa
Press
MSL
hPa
Rain since
9am
mm
Dir  Spd
km/h
Gust
km/h
Spd
kts
Gust
kts
19/11:30pm 10.5 4.2 -4.3 35 5.5 SE 20 24 11 13 1026.5 1026.5 0.0
19/11:00pm 10.6 4.3 -4.2 35 5.4 SE 20 26 11 14 1026.7 1026.7 0.0
19/10:30pm 10.5 4.4 -4.3 35 5.5 SSE 19 22 10 12 1026.7 1026.7 0.0
19/10:00pm 10.6 4.5 -4.2 35 5.4 SSE 19 20 10 11 1026.7 1026.7 0.0
19/09:30pm 10.7 5.0 -4.1 35 5.5 SSE 17 19 9 10 1026.8 1026.8 0.0
19/09:00pm 10.5 5.1 -4.3 35 5.4 SSE 15 17 8 9 1026.7 1026.7 0.0
19/08:30pm 11.0 6.0 -4.2 34 5.6 SSE 13 15 7 8 1026.6 1026.6 0.0
19/08:00pm 11.4 6.4 -4.3 33 5.8 SSE 13 15 7 8 1026.5 1026.5 0.0
19/07:30pm 12.0 7.0 -4.2 32 6.1 SSE 13 17 7 9 1026.4 1026.4 0.0
19/07:00pm 12.7 7.7 -4.4 30 6.4 SSE 13 15 7 8 1026.1 1026.1 0.0
19/06:30pm 13.4 8.0 -4.2 29 6.7 SSE 15 20 8 11 1025.7 1025.7 0.0
19/06:00pm 14.2 8.0 -3.1 30 6.8 S 20 26 11 14 1025.6 1025.6 0.0
19/05:30pm 14.9 8.3 -3.0 29 7.1 S 22 28 12 15 1025.3 1025.3 0.0
19/05:00pm 15.4 9.2 -3.5 27 7.4 S 20 26 11 14 1025.1 1025.1 0.0
19/04:30pm 15.8 8.8 -3.1 27 7.6 SSW 24 33 13 18 1024.9 1024.9 0.0
19/04:00pm 16.0 9.4 -3.5 26 7.7 S 22 32 12 17 1025.0 1025.0 0.0
19/03:30pm 16.0 9.6 -2.0 29 7.4 S 22 32 12 17 1025.2 1025.2 0.0
19/03:00pm 15.5 9.1 -2.0 30 7.1 S 22 32 12 17 1025.4 1025.4 0.0
19/02:30pm 15.3 8.6 -0.9 33 6.8 S 24 35 13 19 1025.7 1025.7 0.0
19/02:00pm 15.5 9.3 -0.3 34 6.7 S 22 33 12 18 1025.8 1025.8 0.0
19/01:30pm 14.8 8.1 -0.9 34 6.5 S 24 37 13 20 1026.2 1026.2 0.0
19/01:00pm 14.9 8.3 -0.4 35 6.4 S 24 39 13 21 1026.5 1026.5 0.0
19/12:30pm 14.5 7.6 0.4 38 6.0 S 26 35 14 19 1027.1 1027.1 0.0
19/12:00pm 13.4 6.6 0.8 42 5.3 SSW 26 35 14 19 1027.4 1027.4 0.0
19/11:30am 12.8 6.4 1.2 45 5.0 S 24 35 13 19 1027.8 1027.8 0.0
19/11:00am 12.9 6.7 1.9 47 4.8 SSW 24 32 13 17 1028.2 1028.2 0.0
19/10:30am 12.3 5.3 1.9 49 4.5 SSW 28 35 15 19 1028.3 1028.3 0.0
19/10:00am 11.6 5.1 2.9 55 3.8 SSW 26 39 14 21 1028.4 1028.4 0.0
19/09:30am 11.2 5.2 3.3 58 3.5 SSW 24 32 13 17 1028.3 1028.3 0.0
19/09:00am 10.3 4.3 3.1 61 3.1 S 24 30 13 16 1028.2 1028.2 0.0
19/08:30am 9.0 4.1 2.1 62 2.9 SSW 17 20 9 11 1027.8 1027.8 0.0
19/08:00am 7.5 4.0 1.1 64 2.6 SW 9 15 5 8 1027.4 1027.4 0.0
19/07:30am 5.5 1.8 -0.3 66 2.2 SSW 9 11 5 6 1026.9 1026.9 0.0
19/07:00am 4.9 0.7 -0.7 67 2.1 SW 11 13 6 7 1026.6 1026.6 0.0
19/06:30am 4.9 1.5 -0.9 66 2.2 SSW 7 9 4 5 1026.2 1026.2 0.0
19/06:00am 5.4 1.6 -0.8 64 2.3 SW 9 11 5 6 1025.8 1025.8 0.0
19/05:30am 5.3 0.7 -1.2 63 2.4 SW 13 15 7 8 1025.6 1025.6 0.0
19/05:00am 6.0 2.2 -0.9 61 2.6 SSW 9 11 5 6 1025.5 1025.5 0.0
19/04:30am 6.1 2.2 -1.3 59 2.8 SW 9 11 5 6 1025.4 1025.4 0.0
19/04:00am 6.5 3.7 -0.7 60 2.7 SW 4 7 2 4 1025.1 1025.1 0.0
19/03:30am 7.0 3.2 -0.7 58 3.0 SSW 9 11 5 6 1025.1 1025.1 0.0
19/03:00am 7.5 3.3 -0.9 55 3.2 SSW 11 11 6 6 1025.1 1025.1 0.0
19/02:30am 8.4 3.9 -0.6 53 3.5 SSW 13 15 7 8 1025.2 1025.2 0.0
19/02:00am 8.8 4.6 -0.8 51 3.7 SSW 11 13 6 7 1025.3 1025.3 0.0
19/01:30am 9.5 4.9 -0.7 49 4.0 S 13 15 7 8 1025.3 1025.3 0.0
19/01:00am 10.4 5.1 -0.4 47 4.3 SSW 17 22 9 12 1025.2 1025.2 0.0
19/12:30am 10.4 5.1 -0.7 46 4.4 SSW 17 20 9 11 1025.1 1025.1 0.0
19/12:00am 10.6 5.2 -1.1 44 4.6 SSW 17 20 9 11 1025.0 1025.0 0.0
 
Date/Time
EST
Temp
°C
App
Temp
°C
Dew
Point
°C
Rel
Hum
%
Delta-T
°C
Wind Press
QNH
hPa
Press
MSL
hPa
Rain since
9am
mm
Dir  Spd
km/h
Gust
km/h
Spd
kts
Gust
kts
18/11:30pm 11.1 5.4 -1.0 43 4.8 SSW 19 24 10 13 1024.9 1024.9 0.0
18/11:00pm 10.7 5.7 -1.4 43 4.8 SSW 15 17 8 9 1025.0 1025.0 0.0
18/10:30pm 10.8 6.1 -1.6 42 4.9 SSW 13 15 7 8 1024.9 1024.9 0.0
18/10:00pm 11.6 7.3 -1.5 40 5.2 SSW 11 15 6 8 1024.8 1024.8 0.0
18/09:30pm 12.2 7.2 -1.3 39 5.4 SSW 15 19 8 10 1024.7 1024.7 0.0
18/09:00pm 11.7 7.1 -1.4 40 5.2 SW 13 15 7 8 1024.4 1024.4 0.0
18/08:30pm 12.5 7.5 -1.4 38 5.6 SW 15 15 8 8 1024.2 1024.2 0.0
18/08:00pm 13.2 8.6 -1.2 37 5.8 SW 13 15 7 8 1023.8 1023.7 0.0
18/07:30pm 14.1 9.1 -1.1 35 6.3 SW 15 19 8 10 1023.5 1023.4 0.0
18/07:00pm 14.7 9.0 -1.0 34 6.5 SW 19 20 10 11 1023.0 1023.0 0.0
18/06:30pm 15.3 9.0 -0.9 33 6.8 SW 22 28 12 15 1022.5 1022.5 0.0
18/06:00pm 16.0 8.5 -1.1 31 7.1 SW 28 35 15 19 1022.3 1022.3 0.0
18/05:30pm 16.8 8.6 -0.9 30 7.5 SW 32 41 17 22 1022.1 1022.1 0.0
18/05:00pm 17.5 10.1 -0.7 29 7.8 SW 28 41 15 22 1021.7 1021.7 0.0
18/04:30pm 18.1 10.7 -0.7 28 8.1 SW 28 41 15 22 1021.4 1021.4 0.0
18/04:00pm 18.1 10.7 -0.7 28 8.1 SW 28 43 15 23 1021.4 1021.4 0.0
18/03:47pm 18.1 9.9 -0.7 28 8.1 SW 32 59 17 32 1021.3 1021.3 0.0
18/03:30pm 17.7 9.6 -0.5 29 7.9 SW 32 44 17 24 1021.4 1021.4 0.0
18/03:00pm 17.4 10.4 -0.8 29 7.8 SW 26 39 14 21 1021.3 1021.3 0.0
18/02:30pm 18.0 10.3 -0.3 29 8.0 WSW 30 37 16 20 1021.2 1021.2 0.0
18/02:00pm 18.0 9.9 -0.3 29 7.9 SW 32 44 17 24 1021.4 1021.4 0.0
18/01:30pm 17.7 10.5 0.8 32 7.5 SW 28 37 15 20 1021.6 1021.6 0.0
18/01:00pm 16.9 9.6 0.1 32 7.3 SW 28 43 15 23 1021.9 1021.9 0.0
18/12:30pm 16.6 8.5 -0.1 32 7.2 SW 32 41 17 22 1022.3 1022.3 0.0
18/12:00pm 16.0 8.7 0.2 34 6.8 SW 28 41 15 22 1022.6 1022.6 0.0
18/11:30am 15.3 7.2 -0.4 34 6.6 SW 32 46 17 25 1023.0 1023.0 0.0
18/11:18am 15.6 7.6 0.2 35 6.6 SW 32 50 17 27 1023.0 1023.0 0.0
18/11:00am 14.9 6.6 -0.4 35 6.4 SW 33 46 18 25 1023.3 1023.2 0.0
18/10:30am 14.6 5.9 -0.3 36 6.3 SW 35 44 19 24 1023.3 1023.2 0.0
18/10:00am 14.0 4.2 -0.4 37 6.0 SW 41 52 22 28 1023.4 1023.3 0.0
18/09:30am 13.6 5.4 0.3 40 5.6 SW 33 44 18 24 1023.0 1023.0 0.0
18/09:00am 13.0 4.6 1.4 45 5.0 SW 35 46 19 25 1022.6 1022.6 0.0
18/08:30am 12.3 5.6 1.3 47 4.7 SW 26 35 14 19 1022.1 1022.1 0.0
18/08:00am 11.4 4.6 1.1 49 4.3 SW 26 37 14 20 1021.5 1021.5 0.0
18/07:30am 10.1 4.7 1.2 54 3.7 WSW 19 26 10 14 1021.1 1021.1 0.0

Other Formats:

Comma delimited format used in spreadsheet applications
http://www.bom.gov.au/fwo/IDN60801/IDN60801.95699.axf

JavaScript Object Notation format (JSON) in row-major order
http://www.bom.gov.au/fwo/IDN60801/IDN60801.95699.json